Airfield :
LOGIN :

Register | Disclaimer

   EN    FR    IT 

 










Legend :    VFR   Marginal VFR   IFR   Intensive IFR   Very Intensive IFR
Visi :
Ceiling :
>= 8 km
>= 3000ft
5 to 8 km
1000 to 3000 ft
1500m to 5 km
500 to 1000 ft
800 to 1500m
200 to 500 ft
< 800m
< 200 ft
Symbols :   Thunderstorms  Fog  Heavy snow  Heavy precipitations  Wind > 20 kt
SIGMETs :     Misc.  Thunderstorms  Icing  Turbulence  Mountain Waves  Volcanic Ashes







- Airport Elevation : 622 ft
- IATA code : BRS
- Download approach charts


EGGD - Bristol Int.

CURRENT METAR :
  • 200720Z AUTO 21007KT 9999 NCD 13/11 Q1023

EXPIRED METARs :
  • 200650Z AUTO 22004KT 160V250 9999 NCD 13/11 Q1023
  • 200620Z AUTO 23006KT 9999 SCT014 12/11 Q1023
  • 200550Z AUTO 22004KT 9999 BKN009 BKN014 12/11 Q1023
  • 200520Z AUTO VRB03KT 9999 SCT008 OVC012 12/12 Q1022
  • 200450Z AUTO 23005KT 9999 BKN009 OVC039 12/12 Q1022

TAF TAF EGGD
Valid from the 20 at 06:00 until the 21 at 06:00 UTC


200455Z 2006/2106 23007KT 9999 SCT030
PROB30
TEMPO 2006/2009 BKN009
BECMG 2014/2017 16010KT 6000 -RA BKN008
TEMPO 2016/2106 4000 RADZ BKN004
PROB40
TEMPO 2018/2106 0600 FG BKN000
ATIS : +44 1275 473 666
No reported NOTAMs for that airfield.



MET'MAP, your aeronautical weather chart ! - Copyright ORBIFLY December 2007 - Disclaimer

ORBIFLY MET'MAP TEAM :

Programming & Development : Alexandra Zaïnal
Concept & Development : Baudouin d'Aumeries
Co-Development & Prog : Marc-Olivier Méhu
Technical & hardware support : Manuel Goepfert

Contact : metmap@orbifly.com




SOURCES & CREDITS :

   NOAA